Time;durP1;ratioP1;P1;durP2;ratioP2;P2;SDS_P1;SDS_P2;PMS_P1;PMS_P2;Temp;Humidity;BMP_temperature;BMP_pressure;BME280_temperature;BME280_humidity;BME280_pressure;Samples;Min_cycle;Max_cycle;Signal;HPM_P1;HPM_P2
2022/09/04 00:02:17;;;;;;;4.50;4.10;;;;;19.30;98856.00;;;;16609245;28;20779;-48
2022/09/04 00:10:28;;;;;;;3.53;3.03;;;;;19.70;98851.00;;;;16630269;28;20734;-48
2022/09/04 00:18:37;;;;;;;5.30;3.60;;;;;19.40;98850.00;;;;16594831;28;20247;-49
2022/09/04 00:26:47;;;;;;;5.63;4.40;;;;;19.30;98857.00;;;;16594159;28;20634;-48
2022/09/04 00:35:03;;;;;;;4.10;3.80;;;;;18.80;98855.00;;;;16627745;28;20230;-48
2022/09/04 00:43:26;;;;;;;4.97;4.53;;;;;18.80;98866.00;;;;16659335;28;20219;-49
2022/09/04 00:51:33;;;;;;;5.30;4.80;;;;;19.00;98865.00;;;;16635340;28;20314;-49
2022/09/04 00:59:57;;;;;;;5.70;5.20;;;;;18.90;98873.00;;;;16637170;28;20230;-49
2022/09/04 01:08:09;;;;;;;5.73;5.23;;;;;19.20;98882.00;;;;16642549;28;20277;-48
2022/09/04 01:16:18;;;;;;;6.70;6.13;;;;;19.20;98886.00;;;;16609179;28;20316;-48
2022/09/04 01:24:51;;;;;;;8.00;5.67;;;;;19.30;98885.00;;;;16594198;28;20667;-48
2022/09/04 01:33:05;;;;;;;6.83;6.23;;;;;19.00;98888.00;;;;16604785;28;20237;-49
2022/09/04 01:41:15;;;;;;;8.93;8.13;;;;;18.90;98902.00;;;;16638698;28;20212;-48
2022/09/04 01:49:28;;;;;;;9.20;8.40;;;;;18.70;98912.00;;;;16606508;28;20310;-48
2022/09/04 01:57:40;;;;;;;9.80;8.87;;;;;18.50;98913.00;;;;16588756;28;20783;-49
2022/09/04 02:05:53;;;;;;;9.83;8.70;;;;;18.60;98918.00;;;;16607127;28;20226;-48
2022/09/04 02:14:10;;;;;;;10.07;9.17;;;;;18.50;98913.00;;;;16590206;28;20818;-49
2022/09/04 02:22:23;;;;;;;12.63;9.97;;;;;18.60;98921.00;;;;16643229;28;20217;-49
2022/09/04 02:30:26;;;;;;;6.50;5.90;;;;;18.30;98927.00;;;;16651678;28;20251;-48
2022/09/04 02:38:36;;;;;;;10.80;9.80;;;;;19.00;98927.00;;;;16652562;28;20265;-49
2022/09/04 02:46:48;;;;;;;9.63;8.83;;;;;18.30;98932.00;;;;16637525;28;20927;-48
2022/09/04 02:55:00;;;;;;;11.23;10.23;;;;;18.10;98936.00;;;;16650900;28;20226;-48
2022/09/04 03:03:07;;;;;;;11.60;10.60;;;;;18.30;98935.00;;;;16651313;28;20297;-48
2022/09/04 03:11:16;;;;;;;11.77;10.17;;;;;17.80;98942.00;;;;16633111;28;20780;-48
2022/09/04 03:19:22;;;;;;;12.90;10.63;;;;;17.90;98941.00;;;;16639127;28;20253;-48
2022/09/04 03:27:27;;;;;;;13.90;10.30;;;;;17.70;98955.00;;;;16664573;28;20637;-48
2022/09/04 03:35:37;;;;;;;16.60;9.87;;;;;17.40;98959.00;;;;16662775;28;20243;-48
2022/09/04 03:43:59;;;;;;;10.60;9.60;;;;;17.50;98960.00;;;;16656809;28;20191;-48
2022/09/04 03:52:07;;;;;;;11.47;9.53;;;;;17.60;98948.00;;;;16654542;28;20266;-48
2022/09/04 04:00:17;;;;;;;10.57;9.57;;;;;17.70;98967.00;;;;16662307;28;20215;-49
2022/09/04 04:08:37;;;;;;;11.77;9.10;;;;;17.60;98969.00;;;;16700405;22;20612;-48
2022/09/04 04:16:50;;;;;;;18.60;10.10;;;;;17.40;98973.00;;;;16758039;28;20227;-49
2022/09/04 04:25:05;;;;;;;19.40;10.33;;;;;17.10;98992.00;;;;16715581;28;20519;-49
2022/09/04 04:33:24;;;;;;;14.70;9.60;;;;;17.20;99002.00;;;;16718435;28;20599;-49
2022/09/04 04:42:05;;;;;;;13.93;9.23;;;;;17.00;99009.00;;;;16724542;28;20233;-48
2022/09/04 04:50:16;;;;;;;12.23;9.63;;;;;17.70;99020.00;;;;16704917;28;20222;-49
2022/09/04 04:58:44;;;;;;;9.33;8.60;;;;;17.40;99030.00;;;;16724857;28;20221;-48
2022/09/04 05:06:53;;;;;;;8.03;7.33;;;;;17.30;99042.00;;;;16725612;28;20732;-49
2022/09/04 05:15:00;;;;;;;8.47;7.70;;;;;17.20;99049.00;;;;16703810;28;20236;-49
2022/09/04 05:23:12;;;;;;;8.53;7.83;;;;;17.20;99066.00;;;;16715032;28;20717;-48
2022/09/04 05:31:20;;;;;;;7.90;7.20;;;;;17.10;99074.00;;;;16723588;28;20305;-48
2022/09/04 05:39:29;;;;;;;6.73;6.13;;;;;17.60;99091.00;;;;16723501;28;20226;-49
2022/09/04 05:47:42;;;;;;;7.70;7.00;;;;;17.70;99098.00;;;;16708969;28;20808;-49
2022/09/04 05:55:58;;;;;;;7.67;7.00;;;;;17.20;99102.00;;;;16723356;28;20635;-48
2022/09/04 06:04:22;;;;;;;7.93;6.83;;;;;17.30;99095.00;;;;16668463;28;20184;-49
2022/09/04 06:12:58;;;;;;;6.50;5.87;;;;;19.10;99101.00;;;;16632711;28;20222;-50
2022/09/04 06:21:31;;;;;;;5.90;4.40;;;;;20.60;99104.00;;;;16644559;28;20855;-48
2022/09/04 06:29:57;;;;;;;5.77;5.37;;;;;21.20;99106.00;;;;16670012;28;20229;-49
2022/09/04 06:38:13;;;;;;;4.50;4.10;;;;;21.80;99109.00;;;;16483851;28;20241;-49
2022/09/04 06:46:23;;;;;;;4.80;4.50;;;;;23.10;99102.00;;;;16429910;28;20229;-49
2022/09/04 06:54:35;;;;;;;5.57;5.07;;;;;22.10;99105.00;;;;16421337;28;20221;-50
2022/09/04 07:02:58;;;;;;;4.53;3.83;;;;;22.40;99118.00;;;;16443912;28;20311;-49
2022/09/04 07:11:09;;;;;;;3.90;3.53;;;;;22.50;99126.00;;;;16435854;28;20713;-49
2022/09/04 07:19:34;;;;;;;5.30;4.80;;;;;22.40;99140.00;;;;16443366;28;20224;-49
2022/09/04 07:27:54;;;;;;;5.60;4.40;;;;;22.20;99144.00;;;;16440131;28;20223;-48
2022/09/04 07:36:04;;;;;;;7.90;3.67;;;;;22.50;99140.00;;;;16395957;28;20265;-49
2022/09/04 07:44:13;;;;;;;6.50;5.63;;;;;23.00;99157.00;;;;16403167;28;20263;-49
2022/09/04 07:52:25;;;;;;;6.40;3.90;;;;;22.70;99164.00;;;;16434604;28;20241;-49
2022/09/04 08:00:29;;;;;;;3.90;3.60;;;;;23.40;99178.00;;;;16451223;28;20217;-50
2022/09/04 08:09:01;;;;;;;4.33;3.90;;;;;23.40;99189.00;;;;16436601;28;20693;-49
2022/09/04 08:17:37;;;;;;;4.30;4.00;;;;;23.60;99190.00;;;;16440891;28;20229;-50
2022/09/04 08:25:52;;;;;;;4.13;3.73;;;;;24.10;99198.00;;;;16462834;28;20205;-50
2022/09/04 08:34:24;;;;;;;6.30;5.70;;;;;24.10;99197.00;;;;16433328;28;20731;-50
2022/09/04 08:42:52;;;;;;;6.23;4.80;;;;;24.40;99205.00;;;;16453036;28;20221;-49
2022/09/04 08:51:28;;;;;;;5.00;4.50;;;;;24.80;99207.00;;;;16436904;28;20247;-49
2022/09/04 09:00:07;;;;;;;4.03;3.63;;;;;25.10;99204.00;;;;16455446;28;20303;-49
2022/09/04 09:08:41;;;;;;;3.70;3.40;;;;;24.30;99210.00;;;;16258357;29;20262;-50
2022/09/04 09:16:46;;;;;;;3.50;3.20;;;;;25.10;99204.00;;;;16257348;29;20693;-49
2022/09/04 09:25:19;;;;;;;3.33;2.90;;;;;25.90;99197.00;;;;16252276;29;20222;-50
2022/09/04 09:33:51;;;;;;;8.00;7.30;;;;;26.10;99191.00;;;;16261941;28;20242;-49
2022/09/04 09:42:21;;;;;;;2.80;2.60;;;;;28.40;99193.00;;;;16452398;28;20217;-50
2022/09/04 09:50:49;;;;;;;4.17;2.90;;;;;29.30;99183.00;;;;16449539;28;20320;-50
2022/09/04 09:59:30;;;;;;;2.33;2.13;;;;;29.00;99179.00;;;;16451595;28;20719;-50
2022/09/04 10:08:10;;;;;;;3.30;2.30;;;;;29.40;99182.00;;;;16464406;23;20233;-50
2022/09/04 10:17:10;;;;;;;3.73;2.10;;;;;28.10;99181.00;;;;16377126;28;20225;-48
2022/09/04 10:25:41;;;;;;;2.03;1.90;;;;;27.40;99174.00;;;;16307302;29;20565;-49
2022/09/04 10:34:09;;;;;;;2.00;1.90;;;;;27.20;99177.00;;;;16299447;28;20236;-49
2022/09/04 10:42:26;;;;;;;2.07;1.80;;;;;27.10;99175.00;;;;16281446;29;20241;-49
2022/09/04 10:50:55;;;;;;;2.80;2.07;;;;;27.40;99180.00;;;;16298052;29;20242;-48
2022/09/04 10:59:12;;;;;;;2.70;2.50;;;;;31.10;99164.00;;;;16326315;29;20281;-48
2022/09/04 11:07:39;;;;;;;2.03;1.63;;;;;31.30;99155.00;;;;16332045;28;20356;-50
2022/09/04 11:15:59;;;;;;;5.17;2.33;;;;;31.50;99157.00;;;;16295088;29;20691;-50
2022/09/04 11:24:21;;;;;;;2.53;2.00;;;;;29.40;99162.00;;;;16321770;29;20216;-50
2022/09/04 11:32:43;;;;;;;1.70;1.50;;;;;28.80;99148.00;;;;16304432;29;20245;-48
2022/09/04 11:41:18;;;;;;;2.77;2.10;;;;;31.70;99147.00;;;;16290106;29;20219;-49
2022/09/04 11:49:44;;;;;;;2.07;1.87;;;;;28.20;99149.00;;;;16307759;29;20230;-49
2022/09/04 11:58:00;;;;;;;1.80;1.70;;;;;27.30;99154.00;;;;16304076;29;20218;-49
2022/09/04 12:06:10;;;;;;;4.07;2.20;;;;;30.00;99160.00;;;;16315142;29;20199;-50
2022/09/04 12:14:22;;;;;;;2.67;1.73;;;;;32.40;99164.00;;;;16311831;29;20240;-50
2022/09/04 12:22:51;;;;;;;2.90;2.10;;;;;27.90;99169.00;;;;16334119;29;20332;-48
2022/09/04 12:31:04;;;;;;;3.97;3.60;;;;;27.90;99164.00;;;;16302821;29;20890;-47
2022/09/04 12:39:38;;;;;;;2.50;1.87;;;;;27.60;99167.00;;;;16316687;29;20218;-49
2022/09/04 12:47:50;;;;;;;2.30;2.10;;;;;28.30;99172.00;;;;16357494;28;20361;-50
2022/09/04 12:56:01;;;;;;;2.10;1.90;;;;;28.60;99171.00;;;;16275127;29;20223;-49
2022/09/04 13:04:14;;;;;;;1.83;1.73;;;;;29.50;99172.00;;;;16312596;29;20289;-49
2022/09/04 13:12:26;;;;;;;1.77;1.67;;;;;28.40;99177.00;;;;16294576;29;20226;-50
2022/09/04 13:20:34;;;;;;;2.73;2.10;;;;;30.90;99175.00;;;;16308817;29;20761;-50
2022/09/04 13:28:45;;;;;;;1.50;1.40;;;;;33.30;99177.00;;;;16344255;29;20606;-50
2022/09/04 13:36:54;;;;;;;5.50;5.00;;;;;34.40;99171.00;;;;16320198;29;20719;-50
2022/09/04 13:45:05;;;;;;;1.97;1.87;;;;;33.10;99167.00;;;;16310490;29;20253;-50
2022/09/04 13:53:15;;;;;;;1.87;1.77;;;;;33.40;99175.00;;;;16330947;29;20230;-48
2022/09/04 14:01:22;;;;;;;7.30;1.97;;;;;35.80;99176.00;;;;16307589;29;20225;-47
2022/09/04 14:09:25;;;;;;;1.50;1.40;;;;;35.20;99170.00;;;;16308841;29;20739;-48
2022/09/04 14:17:37;;;;;;;1.60;1.33;;;;;36.20;99170.00;;;;16327337;29;20233;-49
2022/09/04 14:25:43;;;;;;;2.00;1.20;;;;;35.60;99176.00;;;;16327490;29;20238;-49
2022/09/04 14:33:53;;;;;;;1.87;1.57;;;;;35.20;99169.00;;;;16318436;29;20321;-49
2022/09/04 14:42:15;;;;;;;1.90;1.40;;;;;36.00;99180.00;;;;16301034;29;20229;-49
2022/09/04 14:50:19;;;;;;;1.80;1.70;;;;;36.80;99170.00;;;;16306186;29;20739;-48
2022/09/04 14:58:23;;;;;;;1.53;1.43;;;;;34.80;99180.00;;;;16310447;29;20226;-49
2022/09/04 15:06:31;;;;;;;2.17;1.73;;;;;37.30;99173.00;;;;16314981;29;20208;-48
2022/09/04 15:14:38;;;;;;;1.90;1.80;;;;;32.10;99162.00;;;;16323535;29;20226;-48
2022/09/04 15:22:45;;;;;;;2.60;1.60;;;;;32.30;99167.00;;;;16318913;29;20214;-49
2022/09/04 15:31:06;;;;;;;1.87;1.77;;;;;33.50;99153.00;;;;16291961;29;20221;-49
2022/09/04 15:39:20;;;;;;;2.50;2.30;;;;;35.30;99154.00;;;;16313639;29;20734;-49
2022/09/04 15:47:45;;;;;;;1.50;1.40;;;;;32.60;99156.00;;;;16336512;28;20221;-49
2022/09/04 15:55:52;;;;;;;2.40;1.70;;;;;33.40;99149.00;;;;16346254;29;20373;-48
2022/09/04 16:04:00;;;;;;;1.70;1.60;;;;;33.00;99147.00;;;;16339682;29;20310;-48
2022/09/04 16:12:15;;;;;;;1.77;1.60;;;;;33.00;99144.00;;;;16437561;23;20236;-48
2022/09/04 16:20:21;;;;;;;2.10;1.90;;;;;35.30;99152.00;;;;16435251;28;20705;-49
2022/09/04 16:28:30;;;;;;;1.57;1.40;;;;;36.80;99146.00;;;;16399952;28;20340;-49
2022/09/04 16:36:39;;;;;;;1.70;1.60;;;;;35.60;99141.00;;;;16400155;28;20316;-50
2022/09/04 16:44:45;;;;;;;1.87;1.67;;;;;35.60;99143.00;;;;16394966;29;20768;-49
2022/09/04 16:52:56;;;;;;;1.87;1.27;;;;;36.70;99143.00;;;;16392126;28;20225;-48
2022/09/04 17:01:06;;;;;;;5.10;3.97;;;;;29.20;99154.00;;;;16379536;28;20754;-48
2022/09/04 17:09:15;;;;;;;3.27;2.60;;;;;27.70;99158.00;;;;16383317;28;20346;-49
2022/09/04 17:17:21;;;;;;;4.50;3.50;;;;;27.50;99164.00;;;;16394064;28;20230;-47
2022/09/04 17:25:29;;;;;;;3.63;3.33;;;;;25.60;99169.00;;;;16384830;28;20214;-47
2022/09/04 17:33:42;;;;;;;5.87;3.30;;;;;24.80;99173.00;;;;16390137;28;20233;-47
2022/09/04 17:41:50;;;;;;;5.20;4.80;;;;;24.40;99156.00;;;;16408043;28;20299;-47
2022/09/04 17:49:55;;;;;;;4.73;3.53;;;;;23.60;99168.00;;;;16397402;28;20213;-46
2022/09/04 17:58:02;;;;;;;4.03;3.33;;;;;23.10;99173.00;;;;16393590;28;20244;-46
2022/09/04 18:06:09;;;;;;;4.03;3.23;;;;;22.70;99186.00;;;;16402434;28;20208;-46
2022/09/04 18:14:17;;;;;;;10.60;3.60;;;;;22.30;99199.00;;;;16387132;28;20243;-46
2022/09/04 18:22:28;;;;;;;4.20;3.50;;;;;22.40;99203.00;;;;16373087;28;20305;-49
2022/09/04 18:30:31;;;;;;;4.90;4.50;;;;;22.00;99214.00;;;;16386622;28;20214;-48
2022/09/04 18:38:42;;;;;;;3.90;3.50;;;;;21.70;99221.00;;;;16389385;28;20268;-48
2022/09/04 18:46:45;;;;;;;3.40;3.10;;;;;21.40;99238.00;;;;16386821;28;20197;-46
2022/09/04 18:54:52;;;;;;;3.30;3.00;;;;;21.30;99251.00;;;;16395875;28;20272;-49
2022/09/04 19:03:01;;;;;;;3.50;3.20;;;;;21.20;99244.00;;;;16392498;28;20757;-47
2022/09/04 19:11:10;;;;;;;3.30;3.10;;;;;21.00;99256.00;;;;16391859;28;20303;-47
2022/09/04 19:19:18;;;;;;;5.53;3.17;;;;;20.80;99265.00;;;;16401443;28;20231;-48
2022/09/04 19:27:28;;;;;;;4.53;2.90;;;;;21.10;99267.00;;;;16371402;28;20300;-47
2022/09/04 19:35:36;;;;;;;3.37;3.07;;;;;21.20;99259.00;;;;16376675;28;20233;-48
2022/09/04 19:43:47;;;;;;;3.53;3.20;;;;;20.40;99269.00;;;;16376800;28;20231;-48
2022/09/04 19:51:57;;;;;;;3.87;3.57;;;;;20.70;99261.00;;;;16379788;28;20582;-48
2022/09/04 20:00:08;;;;;;;4.97;3.77;;;;;20.90;99270.00;;;;16378449;28;20606;-48
2022/09/04 20:08:15;;;;;;;4.90;3.30;;;;;20.40;99259.00;;;;16388034;28;20233;-48
2022/09/04 20:16:22;;;;;;;3.20;2.67;;;;;20.10;99262.00;;;;16389420;28;20610;-48
2022/09/04 20:24:28;;;;;;;4.73;3.43;;;;;20.00;99257.00;;;;16387769;28;20241;-48
2022/09/04 20:32:34;;;;;;;3.77;3.30;;;;;19.30;99260.00;;;;16390316;28;20772;-47
2022/09/04 20:40:40;;;;;;;5.70;3.63;;;;;19.70;99265.00;;;;16383799;28;20475;-48
2022/09/04 20:48:49;;;;;;;3.43;3.13;;;;;19.40;99269.00;;;;16385203;28;20306;-48
2022/09/04 20:56:58;;;;;;;4.73;3.43;;;;;19.80;99266.00;;;;16387927;28;20228;-48
2022/09/04 21:05:27;;;;;;;5.57;3.90;;;;;19.60;99271.00;;;;16380833;28;20222;-47
2022/09/04 21:13:33;;;;;;;3.60;3.20;;;;;19.50;99260.00;;;;16381531;28;20302;-48
2022/09/04 21:22:10;;;;;;;3.43;3.17;;;;;19.60;99252.00;;;;16381329;28;20222;-48
2022/09/04 21:30:15;;;;;;;6.67;3.47;;;;;18.80;99263.00;;;;16380288;28;20332;-48
2022/09/04 21:38:53;;;;;;;4.13;3.03;;;;;19.40;99266.00;;;;16385132;28;20233;-47
2022/09/04 21:47:04;;;;;;;3.70;3.40;;;;;19.30;99273.00;;;;16379503;28;20643;-48
2022/09/04 21:55:13;;;;;;;3.77;3.40;;;;;19.70;99289.00;;;;16351347;29;20229;-48
2022/09/04 22:03:33;;;;;;;5.67;4.20;;;;;19.70;99279.00;;;;16331111;29;20475;-48
2022/09/04 22:11:47;;;;;;;3.83;3.53;;;;;19.10;99276.00;;;;16433394;23;20319;-49
2022/09/04 22:20:20;;;;;;;3.57;3.27;;;;;18.70;99295.00;;;;16517394;28;20778;-48
2022/09/04 22:28:52;;;;;;;3.47;3.17;;;;;18.70;99289.00;;;;16515614;28;20230;-49
2022/09/04 22:37:35;;;;;;;4.30;3.80;;;;;18.60;99307.00;;;;16508462;28;20355;-49
2022/09/04 22:46:17;;;;;;;3.63;3.20;;;;;19.40;99309.00;;;;16514609;28;20710;-49
2022/09/04 22:54:30;;;;;;;6.43;3.90;;;;;18.20;99305.00;;;;16511906;28;20704;-47
2022/09/04 23:03:07;;;;;;;5.00;3.30;;;;;18.40;99312.00;;;;16514657;28;20223;-49
2022/09/04 23:11:22;;;;;;;3.73;3.43;;;;;18.80;99305.00;;;;16466754;28;20258;-48
2022/09/04 23:19:49;;;;;;;4.43;4.03;;;;;18.50;99308.00;;;;16512977;28;20363;-48
2022/09/04 23:28:01;;;;;;;4.00;3.70;;;;;18.10;99316.00;;;;16512816;28;20219;-48
2022/09/04 23:36:16;;;;;;;4.40;3.27;;;;;18.50;99315.00;;;;16505430;28;20212;-49
2022/09/04 23:44:53;;;;;;;3.80;3.50;;;;;18.80;99314.00;;;;16521918;28;20230;-48
2022/09/04 23:53:06;;;;;;;3.97;3.60;;;;;18.10;99327.00;;;;16522288;28;20705;-48
